AAL1853 PHNL-PHOG
Flight info
| Callsign | AAL1853 |
|---|---|
| Flight time | 0h 33m |
| Altitude | 15000 |
| Route | PALAY3 LNY CAMPS4 |
| Aircraft | A321/M-SDE3FGHIRWY/LB1 |
Departure
| Time | 2026-04-24 01:38 |
|---|---|
| Airport | Daniel K. Inouye International Airport (PHNL) |
Arrival
| Time | 2026-04-24 02:12 |
|---|---|
| Airport | Kahului International Airport (PHOG) |
| Time | Latitude | Longitude | Altitude | Speed | Heading |
|---|---|---|---|---|---|
| 2026-04-24 01:10 | 21.32847 | -157.93265 | 22 ft | 0 kts | 359° |
| 2026-04-24 01:11 | 21.32846 | -157.93265 | 22 ft | 0 kts | 359° |
| 2026-04-24 01:22 | 21.32845 | -157.93265 | 21 ft | 1 kts | 359° |
| 2026-04-24 01:22 | 21.32829 | -157.93265 | 22 ft | 3 kts | 360° |
| 2026-04-24 01:23 | 21.32809 | -157.93265 | 23 ft | 3 kts | 359° |
| 2026-04-24 01:23 | 21.32789 | -157.93265 | 21 ft | 3 kts | 356° |
| 2026-04-24 01:23 | 21.32769 | -157.93263 | 21 ft | 3 kts | 346° |
| 2026-04-24 01:23 | 21.32751 | -157.93256 | 21 ft | 3 kts | 315° |
| 2026-04-24 01:24 | 21.32745 | -157.93247 | 21 ft | 1 kts | 271° |
| 2026-04-24 01:24 | 21.32745 | -157.93246 | 22 ft | 2 kts | 270° |
| 2026-04-24 01:27 | 21.32745 | -157.93253 | 21 ft | 3 kts | 270° |
| 2026-04-24 01:28 | 21.32745 | -157.93322 | 19 ft | 15 kts | 269° |
| 2026-04-24 01:28 | 21.32742 | -157.93443 | 19 ft | 17 kts | 269° |
| 2026-04-24 01:28 | 21.32741 | -157.93565 | 21 ft | 16 kts | 269° |
| 2026-04-24 01:28 | 21.32741 | -157.93683 | 22 ft | 16 kts | 270° |
| 2026-04-24 01:29 | 21.32741 | -157.93782 | 21 ft | 17 kts | 269° |
| 2026-04-24 01:29 | 21.32740 | -157.93837 | 20 ft | 17 kts | 269° |
| 2026-04-24 01:30 | 21.32739 | -157.93887 | 20 ft | 18 kts | 269° |
| 2026-04-24 01:31 | 21.32739 | -157.93914 | 20 ft | 18 kts | 270° |
| 2026-04-24 01:31 | 21.32737 | -157.94021 | 21 ft | 5 kts | 275° |
| 2026-04-24 01:31 | 21.32740 | -157.94051 | 22 ft | 6 kts | 275° |
| 2026-04-24 01:31 | 21.32744 | -157.94116 | 22 ft | 14 kts | 271° |
| 2026-04-24 01:32 | 21.32805 | -157.94175 | 22 ft | 13 kts | 355° |
| 2026-04-24 01:32 | 21.32811 | -157.94175 | 21 ft | 0 kts | 358° |
| 2026-04-24 01:34 | 21.32813 | -157.94175 | 21 ft | 2 kts | 358° |
| 2026-04-24 01:35 | 21.32833 | -157.94171 | 21 ft | 4 kts | 12° |
| 2026-04-24 01:35 | 21.32855 | -157.94179 | 22 ft | 2 kts | 278° |
| 2026-04-24 01:35 | 21.32824 | -157.94184 | 21 ft | 9 kts | 174° |
| 2026-04-24 01:35 | 21.32759 | -157.94197 | 24 ft | 10 kts | 232° |
| 2026-04-24 01:36 | 21.32744 | -157.94283 | 21 ft | 16 kts | 262° |
| 2026-04-24 01:36 | 21.32682 | -157.94326 | 22 ft | 7 kts | 175° |
| 2026-04-24 01:36 | 21.32636 | -157.94325 | 24 ft | 0 kts | 179° |
| 2026-04-24 01:37 | 21.32591 | -157.94325 | 24 ft | 15 kts | 180° |
| 2026-04-24 01:37 | 21.32525 | -157.94252 | 24 ft | 13 kts | 90° |
| 2026-04-24 01:37 | 21.32525 | -157.94093 | 24 ft | 50 kts | 90° |
| 2026-04-24 01:38 | 21.32530 | -157.93438 | 19 ft | 125 kts | 91° |
| 2026-04-24 01:38 | 21.32521 | -157.92292 | 56 ft | 178 kts | 88° |
| 2026-04-24 01:38 | 21.32512 | -157.90937 | 776 ft | 178 kts | 89° |
| 2026-04-24 01:38 | 21.32080 | -157.89759 | 1928 ft | 173 kts | 127° |
| 2026-04-24 01:39 | 21.31030 | -157.89115 | 2875 ft | 178 kts | 158° |
| 2026-04-24 01:39 | 21.29832 | -157.88800 | 3756 ft | 178 kts | 163° |
| 2026-04-24 01:39 | 21.28611 | -157.88533 | 4548 ft | 179 kts | 165° |
| 2026-04-24 01:39 | 21.27328 | -157.88240 | 4949 ft | 205 kts | 165° |
| 2026-04-24 01:40 | 21.25819 | -157.87864 | 5015 ft | 239 kts | 164° |
| 2026-04-24 01:40 | 21.24679 | -157.87569 | 5020 ft | 259 kts | 165° |
| 2026-04-24 01:40 | 21.23003 | -157.87137 | 4988 ft | 236 kts | 163° |
| 2026-04-24 01:40 | 21.21605 | -157.86495 | 5091 ft | 207 kts | 142° |
| 2026-04-24 01:41 | 21.20564 | -157.85360 | 5285 ft | 222 kts | 119° |
| 2026-04-24 01:41 | 21.19943 | -157.83818 | 5576 ft | 233 kts | 108° |
| 2026-04-24 01:41 | 21.19354 | -157.82126 | 5932 ft | 247 kts | 109° |
| 2026-04-24 01:41 | 21.18747 | -157.80387 | 6563 ft | 252 kts | 109° |
| 2026-04-24 01:42 | 21.18125 | -157.78615 | 7161 ft | 256 kts | 109° |
| 2026-04-24 01:42 | 21.17495 | -157.76822 | 7760 ft | 259 kts | 110° |
| 2026-04-24 01:42 | 21.16856 | -157.75004 | 8343 ft | 263 kts | 109° |
| 2026-04-24 01:42 | 21.16208 | -157.73151 | 8930 ft | 266 kts | 109° |
| 2026-04-24 01:43 | 21.15556 | -157.71280 | 9493 ft | 270 kts | 109° |
| 2026-04-24 01:43 | 21.14896 | -157.69383 | 10034 ft | 274 kts | 109° |
| 2026-04-24 01:43 | 21.14228 | -157.67459 | 10531 ft | 277 kts | 109° |
| 2026-04-24 01:43 | 21.13552 | -157.65517 | 11028 ft | 280 kts | 109° |
| 2026-04-24 01:44 | 21.12865 | -157.63555 | 11539 ft | 282 kts | 108° |
| 2026-04-24 01:44 | 21.12167 | -157.61572 | 12053 ft | 285 kts | 108° |
| 2026-04-24 01:44 | 21.11468 | -157.59586 | 12574 ft | 288 kts | 108° |
| 2026-04-24 01:44 | 21.10741 | -157.57572 | 13078 ft | 291 kts | 111° |
| 2026-04-24 01:45 | 21.09790 | -157.55635 | 13595 ft | 296 kts | 119° |
| 2026-04-24 01:45 | 21.08715 | -157.53747 | 14083 ft | 298 kts | 118° |
| 2026-04-24 01:45 | 21.07636 | -157.51840 | 14543 ft | 301 kts | 118° |
| 2026-04-24 01:45 | 21.06545 | -157.49906 | 14900 ft | 310 kts | 119° |
| 2026-04-24 01:46 | 21.05399 | -157.47875 | 14976 ft | 328 kts | 119° |
| 2026-04-24 01:46 | 21.04181 | -157.45715 | 14990 ft | 349 kts | 119° |
| 2026-04-24 01:46 | 21.02893 | -157.43425 | 14993 ft | 368 kts | 119° |
| 2026-04-24 01:46 | 21.01537 | -157.41015 | 14991 ft | 387 kts | 119° |
| 2026-04-24 01:47 | 21.00110 | -157.38485 | 14993 ft | 406 kts | 119° |
| 2026-04-24 01:47 | 20.98619 | -157.35854 | 14994 ft | 423 kts | 120° |
| 2026-04-24 01:47 | 20.97078 | -157.33143 | 14999 ft | 439 kts | 120° |
| 2026-04-24 01:47 | 20.95488 | -157.30354 | 14990 ft | 431 kts | 120° |
| 2026-04-24 01:48 | 20.93966 | -157.27689 | 14994 ft | 411 kts | 120° |
| 2026-04-24 01:48 | 20.92500 | -157.25115 | 15000 ft | 401 kts | 120° |
| 2026-04-24 01:48 | 20.91061 | -157.22575 | 15003 ft | 400 kts | 120° |
| 2026-04-24 01:48 | 20.89617 | -157.20027 | 15019 ft | 399 kts | 120° |
| 2026-04-24 01:49 | 20.88180 | -157.17496 | 15026 ft | 398 kts | 120° |
| 2026-04-24 01:49 | 20.86737 | -157.14955 | 15034 ft | 398 kts | 120° |
| 2026-04-24 01:49 | 20.85303 | -157.12435 | 15041 ft | 398 kts | 120° |
| 2026-04-24 01:49 | 20.83867 | -157.09910 | 15052 ft | 397 kts | 120° |
| 2026-04-24 01:50 | 20.82437 | -157.07398 | 15056 ft | 391 kts | 120° |
| 2026-04-24 01:50 | 20.81027 | -157.04924 | 14924 ft | 399 kts | 120° |
| 2026-04-24 01:50 | 20.79562 | -157.02356 | 13931 ft | 410 kts | 120° |
| 2026-04-24 01:50 | 20.78057 | -156.99716 | 12943 ft | 419 kts | 120° |
| 2026-04-24 01:51 | 20.76617 | -156.97028 | 12293 ft | 416 kts | 113° |
| 2026-04-24 01:51 | 20.75563 | -156.94160 | 11686 ft | 411 kts | 108° |
| 2026-04-24 01:51 | 20.74696 | -156.91313 | 10567 ft | 399 kts | 105° |
| 2026-04-24 01:51 | 20.73960 | -156.88490 | 9571 ft | 385 kts | 104° |
| 2026-04-24 01:52 | 20.73307 | -156.85794 | 8425 ft | 371 kts | 104° |
| 2026-04-24 01:52 | 20.72657 | -156.83115 | 6943 ft | 373 kts | 104° |
| 2026-04-24 01:52 | 20.71992 | -156.80465 | 5644 ft | 369 kts | 105° |
| 2026-04-24 01:52 | 20.71301 | -156.77827 | 5035 ft | 366 kts | 105° |
| 2026-04-24 01:53 | 20.70607 | -156.75235 | 4432 ft | 360 kts | 105° |
| 2026-04-24 01:53 | 20.69922 | -156.72712 | 4078 ft | 340 kts | 105° |
| 2026-04-24 01:53 | 20.69295 | -156.70422 | 3997 ft | 302 kts | 104° |
| 2026-04-24 01:53 | 20.68738 | -156.68396 | 3997 ft | 270 kts | 105° |
| 2026-04-24 01:54 | 20.68218 | -156.66494 | 4003 ft | 266 kts | 104° |
| 2026-04-24 01:54 | 20.67701 | -156.64604 | 3990 ft | 264 kts | 104° |
| 2026-04-24 01:54 | 20.67234 | -156.62758 | 3983 ft | 246 kts | 95° |
| 2026-04-24 01:54 | 20.67304 | -156.60977 | 3994 ft | 238 kts | 72° |
| 2026-04-24 01:55 | 20.68013 | -156.59407 | 3995 ft | 236 kts | 50° |
| 2026-04-24 01:55 | 20.69235 | -156.58247 | 4008 ft | 238 kts | 35° |
| 2026-04-24 01:55 | 20.70595 | -156.57244 | 3997 ft | 237 kts | 34° |
| 2026-04-24 01:55 | 20.71924 | -156.56262 | 3967 ft | 224 kts | 35° |
| 2026-04-24 01:56 | 20.73174 | -156.55335 | 3765 ft | 209 kts | 35° |
| 2026-04-24 01:56 | 20.74312 | -156.54490 | 3498 ft | 187 kts | 36° |
| 2026-04-24 01:56 | 20.75302 | -156.53755 | 3301 ft | 161 kts | 36° |
| 2026-04-24 01:56 | 20.76176 | -156.53106 | 3087 ft | 148 kts | 36° |
| 2026-04-24 01:57 | 20.77021 | -156.52477 | 2886 ft | 147 kts | 36° |
| 2026-04-24 01:57 | 20.77851 | -156.51861 | 2703 ft | 144 kts | 36° |
| 2026-04-24 01:57 | 20.78663 | -156.51257 | 2521 ft | 143 kts | 35° |
| 2026-04-24 01:57 | 20.79487 | -156.50645 | 2327 ft | 143 kts | 34° |
| 2026-04-24 01:58 | 20.80303 | -156.50038 | 2141 ft | 142 kts | 33° |
| 2026-04-24 01:58 | 20.81113 | -156.49436 | 1965 ft | 142 kts | 35° |
| 2026-04-24 01:58 | 20.81922 | -156.48835 | 1779 ft | 144 kts | 35° |
| 2026-04-24 01:58 | 20.82738 | -156.48228 | 1582 ft | 143 kts | 33° |
| 2026-04-24 01:59 | 20.83560 | -156.47617 | 1384 ft | 143 kts | 32° |
| 2026-04-24 01:59 | 20.84371 | -156.47014 | 1194 ft | 140 kts | 34° |
| 2026-04-24 01:59 | 20.85163 | -156.46425 | 1002 ft | 141 kts | 34° |
| 2026-04-24 01:59 | 20.85963 | -156.45830 | 815 ft | 140 kts | 33° |
| 2026-04-24 02:00 | 20.86772 | -156.45227 | 623 ft | 142 kts | 32° |
| 2026-04-24 02:00 | 20.87566 | -156.44637 | 425 ft | 139 kts | 35° |
| 2026-04-24 02:00 | 20.88373 | -156.44043 | 238 ft | 139 kts | 34° |
| 2026-04-24 02:00 | 20.89128 | -156.43471 | 58 ft | 122 kts | 33° |
| 2026-04-24 02:01 | 20.89789 | -156.42980 | 91 ft | 126 kts | 32° |
| 2026-04-24 02:01 | 20.90559 | -156.42439 | 667 ft | 140 kts | 30° |
| 2026-04-24 02:01 | 20.91442 | -156.41845 | 1166 ft | 165 kts | 30° |
| 2026-04-24 02:01 | 20.92463 | -156.41192 | 2029 ft | 163 kts | 30° |
| 2026-04-24 02:02 | 20.93418 | -156.40627 | 3084 ft | 155 kts | 31° |
| 2026-04-24 02:02 | 20.94378 | -156.40081 | 3894 ft | 159 kts | 30° |
| 2026-04-24 02:02 | 20.95369 | -156.39523 | 4619 ft | 164 kts | 29° |
| 2026-04-24 02:02 | 20.96392 | -156.38951 | 5312 ft | 168 kts | 30° |
| 2026-04-24 02:03 | 20.98659 | -156.37649 | 5993 ft | 218 kts | 29° |
| 2026-04-24 02:03 | 21.00104 | -156.36802 | 6108 ft | 247 kts | 29° |
| 2026-04-24 02:03 | 21.01597 | -156.35921 | 6678 ft | 241 kts | 29° |
| 2026-04-24 02:04 | 21.03042 | -156.35059 | 6946 ft | 241 kts | 29° |
| 2026-04-24 02:04 | 21.04505 | -156.34179 | 7169 ft | 241 kts | 30° |
| 2026-04-24 02:04 | 21.05851 | -156.33126 | 7342 ft | 242 kts | 47° |
| 2026-04-24 02:04 | 21.06661 | -156.31559 | 7490 ft | 243 kts | 74° |
| 2026-04-24 02:05 | 21.06706 | -156.29761 | 7607 ft | 245 kts | 102° |
| 2026-04-24 02:05 | 21.05957 | -156.28139 | 7713 ft | 246 kts | 129° |
| 2026-04-24 02:05 | 21.04574 | -156.27066 | 7815 ft | 248 kts | 158° |
| 2026-04-24 02:05 | 21.02879 | -156.26811 | 7909 ft | 250 kts | 186° |
| 2026-04-24 02:06 | 21.01241 | -156.27406 | 8007 ft | 250 kts | 207° |
| 2026-04-24 02:06 | 20.99758 | -156.28218 | 8099 ft | 226 kts | 207° |
| 2026-04-24 02:06 | 20.98458 | -156.28930 | 8204 ft | 190 kts | 207° |
| 2026-04-24 02:06 | 20.97394 | -156.29512 | 8195 ft | 159 kts | 208° |
| 2026-04-24 02:07 | 20.96393 | -156.30060 | 7742 ft | 164 kts | 207° |
| 2026-04-24 02:07 | 20.95382 | -156.30635 | 7209 ft | 169 kts | 212° |
| 2026-04-24 02:07 | 20.94423 | -156.31474 | 6376 ft | 186 kts | 222° |
| 2026-04-24 02:07 | 20.93458 | -156.32467 | 5472 ft | 197 kts | 224° |
| 2026-04-24 02:08 | 20.92496 | -156.33530 | 4663 ft | 199 kts | 226° |
| 2026-04-24 02:08 | 20.91591 | -156.34579 | 4307 ft | 184 kts | 224° |
| 2026-04-24 02:08 | 20.90619 | -156.35447 | 4185 ft | 180 kts | 215° |
| 2026-04-24 02:08 | 20.89612 | -156.36200 | 4314 ft | 179 kts | 213° |
| 2026-04-24 02:09 | 20.88588 | -156.36962 | 4508 ft | 180 kts | 214° |
| 2026-04-24 02:09 | 20.87658 | -156.37905 | 3900 ft | 192 kts | 235° |
| 2026-04-24 02:09 | 20.87044 | -156.39232 | 2973 ft | 204 kts | 246° |
| 2026-04-24 02:09 | 20.86381 | -156.40510 | 2638 ft | 191 kts | 240° |
| 2026-04-24 02:10 | 20.85689 | -156.41689 | 2240 ft | 184 kts | 239° |
| 2026-04-24 02:10 | 20.84985 | -156.42828 | 2076 ft | 182 kts | 241° |
| 2026-04-24 02:10 | 20.84694 | -156.44112 | 1597 ft | 178 kts | 285° |
| 2026-04-24 02:10 | 20.85333 | -156.45090 | 1267 ft | 156 kts | 340° |
| 2026-04-24 02:11 | 20.86396 | -156.45105 | 892 ft | 158 kts | 11° |
| 2026-04-24 02:11 | 20.87391 | -156.44683 | 431 ft | 155 kts | 33° |
| 2026-04-24 02:11 | 20.88268 | -156.44113 | 216 ft | 136 kts | 31° |
| 2026-04-24 02:11 | 20.88997 | -156.43574 | 61 ft | 114 kts | 34° |
| 2026-04-24 02:12 | 20.89435 | -156.43244 | 48 ft | 21 kts | 35° |
| 2026-04-24 02:12 | 20.89584 | -156.43133 | 46 ft | 31 kts | 34° |
| 2026-04-24 02:12 | 20.89738 | -156.43102 | 40 ft | 21 kts | 308° |
| 2026-04-24 02:12 | 20.89736 | -156.43186 | 41 ft | 8 kts | 213° |
| 2026-04-24 02:13 | 20.89628 | -156.43260 | 45 ft | 36 kts | 216° |
| 2026-04-24 02:13 | 20.89593 | -156.43408 | 43 ft | 14 kts | 251° |
| 2026-04-24 02:13 | 20.89581 | -156.43466 | 42 ft | 0 kts | 275° |